sensor_id;sensor_type;location;lat;lon;timestamp;pressure;altitude;pressure_sealevel;temperature;humidity
67109;BME280;54027;50.786;7.058;2023-07-31T00:00:55;100764.34;;;18.55;82.53
67109;BME280;54027;50.786;7.058;2023-07-31T00:03:21;100771.13;;;18.59;82.15
67109;BME280;54027;50.786;7.058;2023-07-31T00:05:46;100760.63;;;18.60;81.88
67109;BME280;54027;50.786;7.058;2023-07-31T00:08:11;100764.00;;;18.62;82.18
67109;BME280;54027;50.786;7.058;2023-07-31T00:10:36;100758.66;;;18.65;82.33
67109;BME280;54027;50.786;7.058;2023-07-31T00:13:02;100761.28;;;18.65;81.54
67109;BME280;54027;50.786;7.058;2023-07-31T00:15:27;100751.56;;;18.67;81.52
67109;BME280;54027;50.786;7.058;2023-07-31T00:17:52;100766.38;;;18.68;81.57
67109;BME280;54027;50.786;7.058;2023-07-31T00:20:18;100764.63;;;18.69;81.69
67109;BME280;54027;50.786;7.058;2023-07-31T00:22:43;100766.38;;;18.68;81.88
67109;BME280;54027;50.786;7.058;2023-07-31T00:25:08;100769.72;;;18.72;81.74
67109;BME280;54027;50.786;7.058;2023-07-31T00:27:34;100769.59;;;18.75;81.29
67109;BME280;54027;50.786;7.058;2023-07-31T00:29:59;100755.47;;;18.79;80.95
67109;BME280;54027;50.786;7.058;2023-07-31T00:32:24;100753.63;;;18.81;81.32
67109;BME280;54027;50.786;7.058;2023-07-31T00:34:50;100757.88;;;18.83;80.93
67109;BME280;54027;50.786;7.058;2023-07-31T00:37:15;100753.41;;;18.87;80.60
67109;BME280;54027;50.786;7.058;2023-07-31T00:39:41;100749.84;;;18.88;80.91
67109;BME280;54027;50.786;7.058;2023-07-31T00:42:06;100769.91;;;18.89;80.63
67109;BME280;54027;50.786;7.058;2023-07-31T00:44:32;100761.91;;;18.92;79.90
67109;BME280;54027;50.786;7.058;2023-07-31T00:46:58;100774.97;;;18.93;79.90
67109;BME280;54027;50.786;7.058;2023-07-31T00:49:24;100764.47;;;18.93;79.58
67109;BME280;54027;50.786;7.058;2023-07-31T00:51:50;100759.09;;;18.96;79.41
67109;BME280;54027;50.786;7.058;2023-07-31T00:54:16;100759.94;;;18.97;79.60
67109;BME280;54027;50.786;7.058;2023-07-31T00:56:44;100752.16;;;18.95;79.84
67109;BME280;54027;50.786;7.058;2023-07-31T00:59:10;100760.75;;;18.99;79.04
67109;BME280;54027;50.786;7.058;2023-07-31T01:01:35;100745.03;;;18.99;79.00
67109;BME280;54027;50.786;7.058;2023-07-31T01:04:01;100760.78;;;18.97;79.41
67109;BME280;54027;50.786;7.058;2023-07-31T01:06:52;100745.88;;;18.99;78.99
67109;BME280;54027;50.786;7.058;2023-07-31T01:11:53;100748.41;;;19.01;79.16
67109;BME280;54027;50.786;7.058;2023-07-31T01:14:20;100749.28;;;19.01;79.16
67109;BME280;54027;50.786;7.058;2023-07-31T01:16:46;100736.09;;;19.03;79.14
67109;BME280;54027;50.786;7.058;2023-07-31T01:19:14;100745.75;;;19.02;80.08
67109;BME280;54027;50.786;7.058;2023-07-31T01:21:58;100738.06;;;18.98;80.25
67109;BME280;54027;50.786;7.058;2023-07-31T01:24:42;100740.78;;;18.96;80.93
67109;BME280;54027;50.786;7.058;2023-07-31T01:27:15;100748.81;;;18.92;81.31
67109;BME280;54027;50.786;7.058;2023-07-31T01:30:17;100756.03;;;18.87;82.37
67109;BME280;54027;50.786;7.058;2023-07-31T01:32:42;100740.66;;;18.78;83.04
67109;BME280;54027;50.786;7.058;2023-07-31T01:35:08;100756.69;;;18.70;83.73
67109;BME280;54027;50.786;7.058;2023-07-31T01:37:34;100752.63;;;18.63;84.04
67109;BME280;54027;50.786;7.058;2023-07-31T01:40:00;100749.38;;;18.58;84.27
67109;BME280;54027;50.786;7.058;2023-07-31T01:42:25;100746.06;;;18.53;85.03
67109;BME280;54027;50.786;7.058;2023-07-31T01:44:50;100747.13;;;18.49;85.51
67109;BME280;54027;50.786;7.058;2023-07-31T01:47:16;100750.78;;;18.45;86.29
67109;BME280;54027;50.786;7.058;2023-07-31T01:49:41;100747.41;;;18.41;86.45
67109;BME280;54027;50.786;7.058;2023-07-31T01:52:06;100753.63;;;18.39;86.59
67109;BME280;54027;50.786;7.058;2023-07-31T01:54:32;100743.16;;;18.39;86.95
67109;BME280;54027;50.786;7.058;2023-07-31T01:56:58;100749.25;;;18.39;86.82
67109;BME280;54027;50.786;7.058;2023-07-31T01:59:24;100746.66;;;18.39;86.82
67109;BME280;54027;50.786;7.058;2023-07-31T02:01:49;100747.50;;;18.40;86.88
67109;BME280;54027;50.786;7.058;2023-07-31T02:04:14;100735.31;;;18.39;87.11
67109;BME280;54027;50.786;7.058;2023-07-31T02:06:40;100728.31;;;18.39;87.23
67109;BME280;54027;50.786;7.058;2023-07-31T02:09:05;100722.16;;;18.40;86.43
67109;BME280;54027;50.786;7.058;2023-07-31T02:11:30;100719.53;;;18.40;87.15
67109;BME280;54027;50.786;7.058;2023-07-31T02:13:56;100718.63;;;18.41;87.00
67109;BME280;54027;50.786;7.058;2023-07-31T02:16:21;100716.91;;;18.40;86.92
67109;BME280;54027;50.786;7.058;2023-07-31T02:18:46;100716.88;;;18.42;86.44
67109;BME280;54027;50.786;7.058;2023-07-31T02:21:11;100718.63;;;18.41;86.75
67109;BME280;54027;50.786;7.058;2023-07-31T02:23:37;100719.50;;;18.42;86.36
67109;BME280;54027;50.786;7.058;2023-07-31T02:26:02;100716.00;;;18.41;86.59
67109;BME280;54027;50.786;7.058;2023-07-31T02:28:28;100712.50;;;18.42;86.41
67109;BME280;54027;50.786;7.058;2023-07-31T02:30:54;100713.34;;;18.43;86.47
67109;BME280;54027;50.786;7.058;2023-07-31T02:33:19;100702.88;;;18.43;86.33
67109;BME280;54027;50.786;7.058;2023-07-31T02:35:44;100698.56;;;18.42;86.57
67109;BME280;54027;50.786;7.058;2023-07-31T02:38:10;100692.47;;;18.41;85.65
67109;BME280;54027;50.786;7.058;2023-07-31T02:40:35;100698.47;;;18.43;85.70
67109;BME280;54027;50.786;7.058;2023-07-31T02:43:00;100687.19;;;18.43;85.67
67109;BME280;54027;50.786;7.058;2023-07-31T02:45:26;100680.09;;;18.45;85.14
67109;BME280;54027;50.786;7.058;2023-07-31T02:47:51;100686.19;;;18.45;85.15
67109;BME280;54027;50.786;7.058;2023-07-31T02:50:16;100684.34;;;18.47;84.83
67109;BME280;54027;50.786;7.058;2023-07-31T02:52:42;100689.59;;;18.47;84.53
67109;BME280;54027;50.786;7.058;2023-07-31T02:55:07;100687.75;;;18.49;84.33
67109;BME280;54027;50.786;7.058;2023-07-31T02:57:32;100687.69;;;18.51;84.13
67109;BME280;54027;50.786;7.058;2023-07-31T02:59:58;100681.47;;;18.53;83.10
67109;BME280;54027;50.786;7.058;2023-07-31T03:02:23;100680.50;;;18.56;83.33
67109;BME280;54027;50.786;7.058;2023-07-31T03:04:49;100685.69;;;18.58;82.67
67109;BME280;54027;50.786;7.058;2023-07-31T03:07:14;100681.31;;;18.58;82.79
67109;BME280;54027;50.786;7.058;2023-07-31T03:09:39;100674.28;;;18.59;82.88
67109;BME280;54027;50.786;7.058;2023-07-31T03:12:05;100671.59;;;18.60;82.50
67109;BME280;54027;50.786;7.058;2023-07-31T03:14:30;100669.84;;;18.61;82.12
67109;BME280;54027;50.786;7.058;2023-07-31T03:16:56;100668.06;;;18.61;82.26
67109;BME280;54027;50.786;7.058;2023-07-31T03:19:21;100669.75;;;18.62;81.93
67109;BME280;54027;50.786;7.058;2023-07-31T03:21:47;100667.91;;;18.64;81.96
67109;BME280;54027;50.786;7.058;2023-07-31T03:24:12;100660.06;;;18.64;81.39
67109;BME280;54027;50.786;7.058;2023-07-31T03:26:37;100659.16;;;18.65;81.49
67109;BME280;54027;50.786;7.058;2023-07-31T03:29:03;100653.91;;;18.65;81.41
67109;BME280;54027;50.786;7.058;2023-07-31T03:31:29;100653.91;;;18.65;81.37
67109;BME280;54027;50.786;7.058;2023-07-31T03:33:54;100655.69;;;18.65;81.27
67109;BME280;54027;50.786;7.058;2023-07-31T03:36:19;100648.63;;;18.67;80.77
67109;BME280;54027;50.786;7.058;2023-07-31T03:38:46;100652.06;;;18.67;80.96
67109;BME280;54027;50.786;7.058;2023-07-31T03:41:11;100645.16;;;18.66;80.66
67109;BME280;54027;50.786;7.058;2023-07-31T03:43:37;100645.06;;;18.68;80.48
67109;BME280;54027;50.786;7.058;2023-07-31T03:46:02;100632.78;;;18.70;80.49
67109;BME280;54027;50.786;7.058;2023-07-31T03:48:28;100634.56;;;18.69;80.33
67109;BME280;54027;50.786;7.058;2023-07-31T03:50:53;100634.56;;;18.69;80.48
67109;BME280;54027;50.786;7.058;2023-07-31T03:53:19;100631.09;;;18.69;80.10
67109;BME280;54027;50.786;7.058;2023-07-31T03:55:44;100627.56;;;18.70;79.98
67109;BME280;54027;50.786;7.058;2023-07-31T03:58:09;100622.31;;;18.70;80.54
67109;BME280;54027;50.786;7.058;2023-07-31T04:00:35;100634.47;;;18.71;80.25
67109;BME280;54027;50.786;7.058;2023-07-31T04:03:00;100621.38;;;18.71;80.14
67109;BME280;54027;50.786;7.058;2023-07-31T04:05:25;100620.59;;;18.69;79.81
67109;BME280;54027;50.786;7.058;2023-07-31T04:07:51;100611.84;;;18.70;80.03
67109;BME280;54027;50.786;7.058;2023-07-31T04:10:19;100613.53;;;18.71;79.96
67109;BME280;54027;50.786;7.058;2023-07-31T04:12:44;100617.91;;;18.70;79.75
67109;BME280;54027;50.786;7.058;2023-07-31T04:15:10;100618.72;;;18.72;80.07
67109;BME280;54027;50.786;7.058;2023-07-31T04:17:35;100623.94;;;18.72;79.98
67109;BME280;54027;50.786;7.058;2023-07-31T04:20:00;100627.44;;;18.73;79.91
67109;BME280;54027;50.786;7.058;2023-07-31T04:22:27;100621.34;;;18.72;79.83
67109;BME280;54027;50.786;7.058;2023-07-31T04:24:52;100615.16;;;18.73;79.66
67109;BME280;54027;50.786;7.058;2023-07-31T04:27:18;100622.88;;;18.76;79.46
67109;BME280;54027;50.786;7.058;2023-07-31T04:29:43;100623.69;;;18.78;79.42
67109;BME280;54027;50.786;7.058;2023-07-31T04:32:11;100627.16;;;18.79;79.50
67109;BME280;54027;50.786;7.058;2023-07-31T04:34:36;100624.44;;;18.80;79.60
67109;BME280;54027;50.786;7.058;2023-07-31T04:37:01;100614.84;;;18.81;79.66
67109;BME280;54027;50.786;7.058;2023-07-31T04:39:27;100619.16;;;18.82;80.07
67109;BME280;54027;50.786;7.058;2023-07-31T04:41:52;100613.84;;;18.83;79.65
67109;BME280;54027;50.786;7.058;2023-07-31T04:44:18;100613.75;;;18.86;79.64
67109;BME280;54027;50.786;7.058;2023-07-31T04:46:43;100616.22;;;18.89;79.69
67109;BME280;54027;50.786;7.058;2023-07-31T04:49:08;100616.09;;;18.92;79.79
67109;BME280;54027;50.786;7.058;2023-07-31T04:51:34;100620.19;;;18.98;79.84
67109;BME280;54027;50.786;7.058;2023-07-31T04:53:59;100613.91;;;19.02;79.63
67109;BME280;54027;50.786;7.058;2023-07-31T04:56:24;100617.94;;;19.09;79.23
67109;BME280;54027;50.786;7.058;2023-07-31T04:58:50;100610.78;;;19.13;78.75
67109;BME280;54027;50.786;7.058;2023-07-31T05:01:15;100608.03;;;19.16;79.36
67109;BME280;54027;50.786;7.058;2023-07-31T05:03:40;100600.03;;;19.19;79.02
67109;BME280;54027;50.786;7.058;2023-07-31T05:06:06;100597.25;;;19.22;79.15
67109;BME280;54027;50.786;7.058;2023-07-31T05:08:31;100605.13;;;19.22;79.13
67109;BME280;54027;50.786;7.058;2023-07-31T05:10:56;100603.41;;;19.21;79.80
67109;BME280;54027;50.786;7.058;2023-07-31T05:13:22;100584.25;;;19.20;79.38
67109;BME280;54027;50.786;7.058;2023-07-31T05:15:47;100577.16;;;19.22;79.83
67109;BME280;54027;50.786;7.058;2023-07-31T05:18:14;100570.00;;;19.26;78.85
67109;BME280;54027;50.786;7.058;2023-07-31T05:20:40;100572.34;;;19.32;78.94
67109;BME280;54027;50.786;7.058;2023-07-31T05:23:06;100557.19;;;19.38;77.76
67109;BME280;54027;50.786;7.058;2023-07-31T05:25:32;100568.13;;;19.46;78.30
67109;BME280;54027;50.786;7.058;2023-07-31T05:27:57;100561.59;;;19.55;77.75
67109;BME280;54027;50.786;7.058;2023-07-31T05:30:22;100571.84;;;19.59;77.62
67109;BME280;54027;50.786;7.058;2023-07-31T05:32:48;100573.41;;;19.63;77.65
67109;BME280;54027;50.786;7.058;2023-07-31T05:35:13;100575.88;;;19.67;77.48
67109;BME280;54027;50.786;7.058;2023-07-31T05:37:38;100565.28;;;19.68;77.48
67109;BME280;54027;50.786;7.058;2023-07-31T05:40:04;100563.47;;;19.70;77.48
67109;BME280;54027;50.786;7.058;2023-07-31T05:42:30;100559.13;;;19.69;77.06
67109;BME280;54027;50.786;7.058;2023-07-31T05:44:55;100555.66;;;19.69;76.98
67109;BME280;54027;50.786;7.058;2023-07-31T05:47:20;100543.66;;;19.65;76.96
67109;BME280;54027;50.786;7.058;2023-07-31T05:49:45;100544.47;;;19.65;77.44
67109;BME280;54027;50.786;7.058;2023-07-31T05:52:11;100544.56;;;19.63;77.86
67109;BME280;54027;50.786;7.058;2023-07-31T05:54:36;100544.72;;;19.60;77.64
67109;BME280;54027;50.786;7.058;2023-07-31T05:57:01;100538.56;;;19.61;77.66
67109;BME280;54027;50.786;7.058;2023-07-31T05:59:27;100526.59;;;19.56;77.19
67109;BME280;54027;50.786;7.058;2023-07-31T06:01:52;100530.03;;;19.56;77.70
67109;BME280;54027;50.786;7.058;2023-07-31T06:04:18;100537.38;;;19.50;78.37
67109;BME280;54027;50.786;7.058;2023-07-31T06:06:43;100530.63;;;19.44;78.87
67109;BME280;54027;50.786;7.058;2023-07-31T06:09:08;100531.56;;;19.43;78.86
67109;BME280;54027;50.786;7.058;2023-07-31T06:11:34;100538.66;;;19.41;79.45
67109;BME280;54027;50.786;7.058;2023-07-31T06:13:59;100540.66;;;19.36;79.55
67109;BME280;54027;50.786;7.058;2023-07-31T06:16:24;100545.41;;;19.28;81.00
67109;BME280;54027;50.786;7.058;2023-07-31T06:18:50;100551.28;;;19.15;82.67
67109;BME280;54027;50.786;7.058;2023-07-31T06:21:16;100556.31;;;19.00;84.99
67109;BME280;54027;50.786;7.058;2023-07-31T06:23:42;100560.59;;;18.84;86.79
67109;BME280;54027;50.786;7.058;2023-07-31T06:26:07;100567.38;;;18.68;88.95
67109;BME280;54027;50.786;7.058;2023-07-31T06:28:33;100559.34;;;18.52;90.82
67109;BME280;54027;50.786;7.058;2023-07-31T06:30:58;100559.19;;;18.37;93.18
67109;BME280;54027;50.786;7.058;2023-07-31T06:33:24;100556.91;;;18.29;93.81
67109;BME280;54027;50.786;7.058;2023-07-31T06:35:50;100555.34;;;18.25;95.81
67109;BME280;54027;50.786;7.058;2023-07-31T06:38:15;100546.81;;;18.20;96.42
67109;BME280;54027;50.786;7.058;2023-07-31T06:40:40;100551.88;;;18.25;97.35
67109;BME280;54027;50.786;7.058;2023-07-31T06:43:06;100546.44;;;18.29;98.56
67109;BME280;54027;50.786;7.058;2023-07-31T06:45:35;100543.75;;;18.31;98.39
67109;BME280;54027;50.786;7.058;2023-07-31T06:48:01;100539.38;;;18.31;99.32
67109;BME280;54027;50.786;7.058;2023-07-31T06:50:28;100534.16;;;18.31;99.82
67109;BME280;54027;50.786;7.058;2023-07-31T06:52:53;100542.06;;;18.30;99.69
67109;BME280;54027;50.786;7.058;2023-07-31T06:55:20;100548.06;;;18.32;99.11
67109;BME280;54027;50.786;7.058;2023-07-31T06:57:46;100545.13;;;18.39;99.28
67109;BME280;54027;50.786;7.058;2023-07-31T07:00:12;100538.69;;;18.46;98.51
67109;BME280;54027;50.786;7.058;2023-07-31T07:02:38;100531.72;;;18.66;98.87
67109;BME280;54027;50.786;7.058;2023-07-31T07:05:03;100529.16;;;18.84;98.47
67109;BME280;54027;50.786;7.058;2023-07-31T07:07:29;100518.75;;;19.01;96.98
67109;BME280;54027;50.786;7.058;2023-07-31T07:09:54;100520.25;;;19.24;96.35
67109;BME280;54027;50.786;7.058;2023-07-31T07:12:19;100519.25;;;19.45;95.85
67109;BME280;54027;50.786;7.058;2023-07-31T07:14:45;100512.94;;;19.67;94.92
67109;BME280;54027;50.786;7.058;2023-07-31T07:17:13;100511.75;;;19.91;93.72
67109;BME280;54027;50.786;7.058;2023-07-31T07:19:41;100504.44;;;19.97;90.94
67109;BME280;54027;50.786;7.058;2023-07-31T07:22:07;100501.81;;;19.97;89.14
67109;BME280;54027;50.786;7.058;2023-07-31T07:24:32;100506.91;;;20.00;88.85
67109;BME280;54027;50.786;7.058;2023-07-31T07:26:58;100503.19;;;19.87;87.38
67109;BME280;54027;50.786;7.058;2023-07-31T07:29:23;100512.66;;;19.90;89.80
67109;BME280;54027;50.786;7.058;2023-07-31T07:31:48;100513.41;;;19.75;91.00
67109;BME280;54027;50.786;7.058;2023-07-31T07:34:14;100511.69;;;19.56;89.10
67109;BME280;54027;50.786;7.058;2023-07-31T07:36:39;100507.97;;;19.43;89.77
67109;BME280;54027;50.786;7.058;2023-07-31T07:39:04;100523.44;;;19.31;91.56
67109;BME280;54027;50.786;7.058;2023-07-31T07:41:30;100530.56;;;19.10;93.29
67109;BME280;54027;50.786;7.058;2023-07-31T07:43:55;100533.97;;;18.93;94.20
67109;BME280;54027;50.786;7.058;2023-07-31T07:46:21;100530.91;;;18.84;95.93
67109;BME280;54027;50.786;7.058;2023-07-31T07:48:46;100530.53;;;18.73;97.48
67109;BME280;54027;50.786;7.058;2023-07-31T07:51:11;100532.59;;;18.66;98.59
67109;BME280;54027;50.786;7.058;2023-07-31T07:53:36;100528.47;;;18.61;99.27
67109;BME280;54027;50.786;7.058;2023-07-31T07:56:02;100533.91;;;18.56;99.73
67109;BME280;54027;50.786;7.058;2023-07-31T07:58:27;100521.81;;;18.53;100.00
67109;BME280;54027;50.786;7.058;2023-07-31T08:00:53;100523.50;;;18.55;100.00
67109;BME280;54027;50.786;7.058;2023-07-31T08:03:18;100524.41;;;18.53;100.00
67109;BME280;54027;50.786;7.058;2023-07-31T08:05:44;100522.56;;;18.56;100.00
67109;BME280;54027;50.786;7.058;2023-07-31T08:08:16;100525.00;;;18.60;100.00
67109;BME280;54027;50.786;7.058;2023-07-31T08:10:42;100529.16;;;18.64;100.00
67109;BME280;54027;50.786;7.058;2023-07-31T08:13:07;100537.69;;;18.69;100.00
67109;BME280;54027;50.786;7.058;2023-07-31T08:15:33;100525.34;;;18.71;100.00
67109;BME280;54027;50.786;7.058;2023-07-31T08:17:58;100521.69;;;18.75;100.00
67109;BME280;54027;50.786;7.058;2023-07-31T08:20:23;100527.56;;;18.80;100.00
67109;BME280;54027;50.786;7.058;2023-07-31T08:22:49;100522.47;;;18.77;99.53
67109;BME280;54027;50.786;7.058;2023-07-31T08:25:14;100505.63;;;18.83;100.00
67109;BME280;54027;50.786;7.058;2023-07-31T08:27:43;100509.22;;;18.80;100.00
67109;BME280;54027;50.786;7.058;2023-07-31T08:30:09;100511.06;;;18.78;100.00
67109;BME280;54027;50.786;7.058;2023-07-31T08:32:34;100509.31;;;18.79;100.00
67109;BME280;54027;50.786;7.058;2023-07-31T08:34:59;100500.75;;;18.75;100.00
67109;BME280;54027;50.786;7.058;2023-07-31T08:37:25;100500.09;;;18.70;100.00
67109;BME280;54027;50.786;7.058;2023-07-31T08:39:50;100502.06;;;18.65;100.00
67109;BME280;54027;50.786;7.058;2023-07-31T08:42:16;100493.16;;;18.69;100.00
67109;BME280;54027;50.786;7.058;2023-07-31T08:44:43;100485.66;;;18.62;100.00
67109;BME280;54027;50.786;7.058;2023-07-31T08:47:10;100486.16;;;18.70;100.00
67109;BME280;54027;50.786;7.058;2023-07-31T08:49:36;100486.31;;;18.67;100.00
67109;BME280;54027;50.786;7.058;2023-07-31T08:52:03;100478.31;;;18.70;100.00
67109;BME280;54027;50.786;7.058;2023-07-31T08:54:29;100476.50;;;18.70;100.00
67109;BME280;54027;50.786;7.058;2023-07-31T08:56:56;100478.09;;;18.74;100.00
67109;BME280;54027;50.786;7.058;2023-07-31T08:59:22;100478.16;;;18.73;100.00
67109;BME280;54027;50.786;7.058;2023-07-31T09:01:50;100481.75;;;18.70;100.00
67109;BME280;54027;50.786;7.058;2023-07-31T09:04:19;100482.13;;;18.63;100.00
67109;BME280;54027;50.786;7.058;2023-07-31T09:06:45;100489.06;;;18.64;100.00
67109;BME280;54027;50.786;7.058;2023-07-31T09:09:13;100490.69;;;18.66;100.00
67109;BME280;54027;50.786;7.058;2023-07-31T09:11:38;100498.97;;;18.76;100.00
67109;BME280;54027;50.786;7.058;2023-07-31T09:14:04;100490.75;;;18.83;100.00
67109;BME280;54027;50.786;7.058;2023-07-31T09:16:34;100486.38;;;18.84;100.00
67109;BME280;54027;50.786;7.058;2023-07-31T09:18:59;100492.66;;;18.80;100.00
67109;BME280;54027;50.786;7.058;2023-07-31T09:21:27;100498.97;;;18.76;100.00
67109;BME280;54027;50.786;7.058;2023-07-31T09:23:54;100488.38;;;18.79;100.00
67109;BME280;54027;50.786;7.058;2023-07-31T09:26:32;100495.38;;;18.78;100.00
67109;BME280;54027;50.786;7.058;2023-07-31T09:28:58;100498.03;;;18.77;100.00
67109;BME280;54027;50.786;7.058;2023-07-31T09:34:03;100484.94;;;18.77;100.00
67109;BME280;54027;50.786;7.058;2023-07-31T09:36:29;100471.13;;;18.73;100.00
67109;BME280;54027;50.786;7.058;2023-07-31T09:39:08;100460.94;;;18.67;100.00
67109;BME280;54027;50.786;7.058;2023-07-31T09:41:39;100467.75;;;18.71;100.00
67109;BME280;54027;50.786;7.058;2023-07-31T09:44:05;100464.09;;;18.75;100.00
67109;BME280;54027;50.786;7.058;2023-07-31T09:46:31;100465.47;;;18.82;100.00
67109;BME280;54027;50.786;7.058;2023-07-31T09:49:06;100458.38;;;18.86;100.00
67109;BME280;54027;50.786;7.058;2023-07-31T09:51:32;100451.13;;;18.91;100.00
67109;BME280;54027;50.786;7.058;2023-07-31T09:54:03;100453.53;;;18.95;100.00
67109;BME280;54027;50.786;7.058;2023-07-31T09:56:28;100445.44;;;19.00;100.00
67109;BME280;54027;50.786;7.058;2023-07-31T09:58:55;100441.41;;;19.12;100.00
67109;BME280;54027;50.786;7.058;2023-07-31T10:01:21;100443.09;;;19.13;100.00
67109;BME280;54027;50.786;7.058;2023-07-31T10:03:47;100436.19;;;19.29;100.00
67109;BME280;54027;50.786;7.058;2023-07-31T10:06:13;100435.97;;;19.33;100.00
67109;BME280;54027;50.786;7.058;2023-07-31T10:08:42;100435.28;;;19.47;100.00
67109;BME280;54027;50.786;7.058;2023-07-31T10:11:09;100435.44;;;19.61;100.00
67109;BME280;54027;50.786;7.058;2023-07-31T10:13:35;100421.53;;;19.76;100.00
67109;BME280;54027;50.786;7.058;2023-07-31T10:16:01;100432.28;;;19.89;100.00
67109;BME280;54027;50.786;7.058;2023-07-31T10:18:27;100427.50;;;19.97;99.61
67109;BME280;54027;50.786;7.058;2023-07-31T10:20:54;100424.00;;;19.96;97.58
67109;BME280;54027;50.786;7.058;2023-07-31T10:23:20;100418.31;;;19.88;94.06
67109;BME280;54027;50.786;7.058;2023-07-31T10:25:45;100419.94;;;19.91;91.19
67109;BME280;54027;50.786;7.058;2023-07-31T10:28:12;100402.50;;;19.90;85.73
67109;BME280;54027;50.786;7.058;2023-07-31T10:30:39;100412.34;;;20.02;85.73
67109;BME280;54027;50.786;7.058;2023-07-31T10:33:05;100396.31;;;20.24;83.37
67109;BME280;54027;50.786;7.058;2023-07-31T10:35:31;100392.09;;;20.52;80.20
67109;BME280;54027;50.786;7.058;2023-07-31T10:38:09;100389.69;;;20.81;80.18
67109;BME280;54027;50.786;7.058;2023-07-31T10:40:35;100374.28;;;21.04;77.12
67109;BME280;54027;50.786;7.058;2023-07-31T10:43:01;100372.31;;;21.38;76.94
67109;BME280;54027;50.786;7.058;2023-07-31T10:45:38;100369.41;;;21.58;76.05
67109;BME280;54027;50.786;7.058;2023-07-31T10:48:06;100380.75;;;21.58;76.04
67109;BME280;54027;50.786;7.058;2023-07-31T10:50:36;100371.69;;;21.48;74.74
67109;BME280;54027;50.786;7.058;2023-07-31T10:53:02;100395.03;;;21.39;75.39
67109;BME280;54027;50.786;7.058;2023-07-31T10:55:32;100397.47;;;21.27;76.21
67109;BME280;54027;50.786;7.058;2023-07-31T10:58:12;100394.13;;;21.10;75.71
67109;BME280;54027;50.786;7.058;2023-07-31T11:00:44;100385.44;;;21.08;74.93
67109;BME280;54027;50.786;7.058;2023-07-31T11:03:19;100380.97;;;21.10;74.22
67109;BME280;54027;50.786;7.058;2023-07-31T11:06:03;100383.78;;;21.07;74.58
67109;BME280;54027;50.786;7.058;2023-07-31T11:08:33;100387.84;;;20.97;74.12
67109;BME280;54027;50.786;7.058;2023-07-31T11:13:31;100409.41;;;20.72;76.00
67109;BME280;54027;50.786;7.058;2023-07-31T11:15:57;100402.59;;;20.68;76.30
67109;BME280;54027;50.786;7.058;2023-07-31T11:18:23;100405.09;;;20.71;76.64
67109;BME280;54027;50.786;7.058;2023-07-31T11:20:48;100395.91;;;20.78;75.85
67109;BME280;54027;50.786;7.058;2023-07-31T11:23:16;100415.44;;;20.90;75.91
67109;BME280;54027;50.786;7.058;2023-07-31T11:25:42;100417.38;;;20.86;76.95
67109;BME280;54027;50.786;7.058;2023-07-31T11:28:09;100421.78;;;20.70;77.88
67109;BME280;54027;50.786;7.058;2023-07-31T11:30:35;100418.78;;;20.60;77.82
67109;BME280;54027;50.786;7.058;2023-07-31T11:33:05;100426.41;;;20.65;78.58
67109;BME280;54027;50.786;7.058;2023-07-31T11:35:35;100422.25;;;20.61;79.55
67109;BME280;54027;50.786;7.058;2023-07-31T11:38:02;100423.28;;;20.58;80.21
67109;BME280;54027;50.786;7.058;2023-07-31T11:40:28;100430.72;;;20.50;81.15
67109;BME280;54027;50.786;7.058;2023-07-31T11:43:03;100424.28;;;20.56;83.92
67109;BME280;54027;50.786;7.058;2023-07-31T11:45:29;100405.75;;;20.90;80.95
67109;BME280;54027;50.786;7.058;2023-07-31T11:47:55;100389.22;;;21.34;80.54
67109;BME280;54027;50.786;7.058;2023-07-31T11:50:22;100380.31;;;21.66;78.89
67109;BME280;54027;50.786;7.058;2023-07-31T11:52:49;100375.78;;;21.82;77.31
67109;BME280;54027;50.786;7.058;2023-07-31T11:55:16;100363.09;;;21.89;76.12
67109;BME280;54027;50.786;7.058;2023-07-31T11:57:43;100363.78;;;21.92;76.22
67109;BME280;54027;50.786;7.058;2023-07-31T12:00:11;100349.56;;;22.09;75.16
67109;BME280;54027;50.786;7.058;2023-07-31T12:02:38;100347.19;;;22.18;74.93
67109;BME280;54027;50.786;7.058;2023-07-31T12:05:14;100334.19;;;22.29;73.79
67109;BME280;54027;50.786;7.058;2023-07-31T12:08:10;100305.59;;;22.52;71.39
67109;BME280;54027;50.786;7.058;2023-07-31T12:10:37;100315.91;;;22.81;71.17
67109;BME280;54027;50.786;7.058;2023-07-31T12:13:05;100304.28;;;23.11;69.48
67109;BME280;54027;50.786;7.058;2023-07-31T12:15:35;100288.31;;;23.26;68.01
67109;BME280;54027;50.786;7.058;2023-07-31T12:18:09;100244.50;;;23.36;64.71
67109;BME280;54027;50.786;7.058;2023-07-31T12:20:35;100275.66;;;23.44;65.28
67109;BME280;54027;50.786;7.058;2023-07-31T12:23:04;100265.63;;;23.49;64.44
67109;BME280;54027;50.786;7.058;2023-07-31T12:25:33;100280.81;;;23.58;64.46
67109;BME280;54027;50.786;7.058;2023-07-31T12:28:05;100292.97;;;23.48;65.20
67109;BME280;54027;50.786;7.058;2023-07-31T12:30:36;100299.69;;;23.27;65.25
67109;BME280;54027;50.786;7.058;2023-07-31T12:33:14;100306.59;;;23.03;65.47
67109;BME280;54027;50.786;7.058;2023-07-31T12:35:42;100305.59;;;23.18;66.15
67109;BME280;54027;50.786;7.058;2023-07-31T12:38:08;100318.31;;;23.11;66.58
67109;BME280;54027;50.786;7.058;2023-07-31T12:40:37;100324.28;;;23.01;66.47
67109;BME280;54027;50.786;7.058;2023-07-31T12:43:02;100317.72;;;22.81;66.04
67109;BME280;54027;50.786;7.058;2023-07-31T12:45:29;100329.00;;;22.56;66.71
67109;BME280;54027;50.786;7.058;2023-07-31T12:47:54;100336.09;;;22.42;67.75
67109;BME280;54027;50.786;7.058;2023-07-31T12:50:20;100344.66;;;22.45;68.77
67109;BME280;54027;50.786;7.058;2023-07-31T12:52:45;100316.31;;;22.49;67.73